createdAt,value
2022-09-22T00:01:36.846Z,99.90
2022-09-22T00:04:08.275Z,99.90
2022-09-22T00:06:42.002Z,99.90
2022-09-22T00:09:11.348Z,99.90
2022-09-22T00:11:43.899Z,99.90
2022-09-22T00:14:15.046Z,92.10
2022-09-22T00:16:45.894Z,85.10
2022-09-22T00:19:16.447Z,99.90
2022-09-22T00:21:46.643Z,99.90
2022-09-22T00:24:17.614Z,99.90
2022-09-22T00:26:45.582Z,99.90
2022-09-22T00:29:14.262Z,99.90
2022-09-22T00:31:43.138Z,99.90
2022-09-22T00:34:16.007Z,99.90
2022-09-22T00:36:45.995Z,99.90
2022-09-22T00:39:15.191Z,99.90
2022-09-22T00:41:46.615Z,99.90
2022-09-22T00:44:41.226Z,99.90
2022-09-22T00:47:27.753Z,99.90
2022-09-22T00:50:00.656Z,99.90
2022-09-22T00:52:33.004Z,99.90
2022-09-22T00:55:05.568Z,99.90
2022-09-22T00:57:36.194Z,99.90
2022-09-22T01:00:08.685Z,99.90
2022-09-22T01:02:37.165Z,99.90
2022-09-22T01:05:06.405Z,99.90
2022-09-22T01:07:36.996Z,99.90
2022-09-22T01:10:05.560Z,99.90
2022-09-22T01:12:33.638Z,99.90
2022-09-22T01:15:22.415Z,99.90
2022-09-22T01:18:06.062Z,99.90
2022-09-22T01:21:20.651Z,99.90
2022-09-22T01:24:24.040Z,99.90
2022-09-22T01:27:31.160Z,99.90
2022-09-22T01:30:20.780Z,99.90
2022-09-22T01:33:01.382Z,99.90
2022-09-22T01:35:32.798Z,99.90
2022-09-22T01:38:10.216Z,99.90
2022-09-22T01:40:43.899Z,99.90
2022-09-22T01:43:17.053Z,99.90
2022-09-22T01:45:49.401Z,99.90
2022-09-22T01:48:23.693Z,99.90
2022-09-22T01:50:58.557Z,99.90
2022-09-22T01:53:33.320Z,99.90
2022-09-22T01:56:05.779Z,99.90
2022-09-22T01:58:37.917Z,99.90
2022-09-22T02:01:14.437Z,99.90
2022-09-22T02:03:46.878Z,99.90
2022-09-22T02:06:20.061Z,99.90
2022-09-22T02:08:55.937Z,99.90
2022-09-22T02:11:24.457Z,99.90
2022-09-22T02:13:53.029Z,99.90
2022-09-22T02:16:24.996Z,99.90
2022-09-22T02:19:11.931Z,99.90
2022-09-22T02:21:44.454Z,99.90
2022-09-22T02:24:28.180Z,99.90
2022-09-22T02:26:57.089Z,99.90
2022-09-22T02:29:26.623Z,99.90
2022-09-22T02:31:57.735Z,99.90
2022-09-22T02:34:25.861Z,99.90
2022-09-22T02:37:01.511Z,99.90
2022-09-22T02:39:38.300Z,99.90
2022-09-22T02:42:18.517Z,99.90
2022-09-22T02:44:52.189Z,99.90
2022-09-22T02:47:32.364Z,99.90
2022-09-22T02:50:02.916Z,99.90
2022-09-22T02:52:30.901Z,99.90
2022-09-22T02:54:58.840Z,99.90
2022-09-22T02:57:26.833Z,99.90
2022-09-22T02:59:54.730Z,99.90
2022-09-22T03:02:24.127Z,99.90
2022-09-22T03:04:52.232Z,99.90
2022-09-22T03:07:20.433Z,99.90
2022-09-22T03:09:48.302Z,99.90
2022-09-22T03:12:16.208Z,99.90
2022-09-22T03:14:44.935Z,99.90
2022-09-22T03:17:13.021Z,99.90
2022-09-22T03:19:44.402Z,99.90
2022-09-22T03:22:14.462Z,99.90
2022-09-22T03:24:42.394Z,99.90
2022-09-22T03:27:10.296Z,99.90
2022-09-22T03:29:38.183Z,99.90
2022-09-22T03:32:06.379Z,99.90
2022-09-22T03:34:34.280Z,99.90
2022-09-22T03:37:03.587Z,99.90
2022-09-22T03:39:33.564Z,99.90
2022-09-22T03:42:01.470Z,99.90
2022-09-22T03:44:31.741Z,99.90
2022-09-22T03:47:00.196Z,99.90
2022-09-22T03:49:29.090Z,99.90
2022-09-22T03:51:56.949Z,99.90
2022-09-22T03:54:26.680Z,99.90
2022-09-22T03:56:54.615Z,99.90
2022-09-22T03:59:22.495Z,99.90
2022-09-22T04:01:52.588Z,99.90
2022-09-22T04:04:26.908Z,99.90
2022-09-22T04:06:54.943Z,99.90
2022-09-22T04:09:22.932Z,99.90
2022-09-22T04:11:52.153Z,99.90
2022-09-22T04:14:20.033Z,99.90
2022-09-22T04:16:47.933Z,99.90
2022-09-22T04:19:16.817Z,99.90
2022-09-22T04:21:45.247Z,99.90
2022-09-22T04:24:13.121Z,99.90
2022-09-22T04:26:51.805Z,99.90
2022-09-22T04:29:30.870Z,99.90
2022-09-22T04:31:58.798Z,99.90
2022-09-22T04:34:29.067Z,99.90
2022-09-22T04:36:56.961Z,99.90
2022-09-22T04:39:25.095Z,99.90
2022-09-22T04:41:52.986Z,99.90
2022-09-22T04:44:20.878Z,99.90
2022-09-22T04:46:50.403Z,99.90
2022-09-22T04:49:20.615Z,99.90
2022-09-22T04:51:48.485Z,99.90
2022-09-22T04:54:16.481Z,99.90
2022-09-22T04:56:46.591Z,99.90
2022-09-22T04:59:14.581Z,99.90
2022-09-22T05:01:42.504Z,99.90
2022-09-22T05:04:11.872Z,99.90
2022-09-22T05:06:39.776Z,99.90
2022-09-22T05:09:07.671Z,99.90
2022-09-22T05:11:35.623Z,99.90
2022-09-22T05:14:05.594Z,99.90
2022-09-22T05:16:33.930Z,99.90
2022-09-22T05:19:01.999Z,99.90
2022-09-22T05:21:31.296Z,99.90
2022-09-22T05:23:59.443Z,99.90
2022-09-22T05:26:27.512Z,99.90
2022-09-22T05:28:56.452Z,99.90
2022-09-22T05:31:24.651Z,99.90
2022-09-22T05:33:52.788Z,99.90
2022-09-22T05:36:20.661Z,99.90
2022-09-22T05:38:49.865Z,99.90
2022-09-22T05:41:17.734Z,99.90
2022-09-22T05:43:45.664Z,99.90
2022-09-22T05:46:13.641Z,99.90
2022-09-22T05:48:41.587Z,99.90
2022-09-22T05:51:09.480Z,99.90
2022-09-22T05:53:37.474Z,99.90
2022-09-22T05:56:06.954Z,99.90
2022-09-22T05:58:35.256Z,99.90
2022-09-22T06:01:04.399Z,99.90
2022-09-22T06:03:32.415Z,99.90
2022-09-22T06:06:00.290Z,99.90
2022-09-22T06:08:28.176Z,99.90
2022-09-22T06:10:56.633Z,99.90
2022-09-22T06:13:26.056Z,99.90
2022-09-22T06:15:53.961Z,99.90
2022-09-22T06:18:24.881Z,99.90
2022-09-22T06:20:56.276Z,99.90
2022-09-22T06:23:26.740Z,99.90
2022-09-22T06:25:58.258Z,99.90
2022-09-22T06:28:27.626Z,99.90
2022-09-22T06:31:00.472Z,99.90
2022-09-22T06:33:28.372Z,99.90
2022-09-22T06:35:58.057Z,99.90
2022-09-22T06:38:26.006Z,99.90
2022-09-22T06:40:59.041Z,99.90
2022-09-22T06:43:30.792Z,99.90
2022-09-22T06:46:02.739Z,99.90
2022-09-22T06:48:31.956Z,99.90
2022-09-22T06:50:59.983Z,89.40
2022-09-22T06:53:29.958Z,99.90
2022-09-22T06:56:01.954Z,99.90
2022-09-22T06:58:42.370Z,99.90
2022-09-22T07:01:15.484Z,1.00
2022-09-22T07:03:44.497Z,99.90
2022-09-22T07:06:14.804Z,99.90
2022-09-22T07:08:45.849Z,99.90
2022-09-22T07:11:14.237Z,64.10
2022-09-22T07:13:45.542Z,98.20
2022-09-22T07:16:16.386Z,99.90
2022-09-22T07:18:47.175Z,99.90
2022-09-22T07:21:16.621Z,21.00
2022-09-22T07:23:44.476Z,99.90
2022-09-22T07:26:15.812Z,1.00
2022-09-22T07:28:46.397Z,99.90
2022-09-22T07:31:16.405Z,1.00
2022-09-22T07:33:46.417Z,1.00
2022-09-22T07:36:16.379Z,99.90
2022-09-22T07:38:49.354Z,99.90
2022-09-22T07:41:20.177Z,99.90
2022-09-22T07:43:53.958Z,99.90
2022-09-22T07:46:22.213Z,1.00
2022-09-22T07:48:50.402Z,99.90
2022-09-22T07:51:21.511Z,99.90
2022-09-22T07:53:54.250Z,99.90
2022-09-22T07:56:27.737Z,1.00
2022-09-22T07:58:57.114Z,1.00
2022-09-22T08:01:29.003Z,1.00
2022-09-22T08:03:57.720Z,99.90
2022-09-22T08:06:25.968Z,1.00
2022-09-22T08:08:56.402Z,1.00
2022-09-22T08:11:26.239Z,99.90
2022-09-22T08:13:57.147Z,1.00
2022-09-22T08:16:28.876Z,1.00
2022-09-22T08:18:57.697Z,1.00
2022-09-22T08:21:26.038Z,1.00
2022-09-22T08:23:54.334Z,1.00
2022-09-22T08:26:22.889Z,99.90
2022-09-22T08:28:53.537Z,99.90
2022-09-22T08:31:24.028Z,1.00
2022-09-22T08:33:52.971Z,1.00
2022-09-22T08:36:21.346Z,1.00
2022-09-22T08:38:49.584Z,1.00
2022-09-22T08:41:24.629Z,99.90
2022-09-22T08:43:55.500Z,99.90
2022-09-22T08:46:31.761Z,99.90
2022-09-22T08:49:23.934Z,99.90
2022-09-22T08:51:55.494Z,99.90
2022-09-22T08:54:27.953Z,1.00
2022-09-22T08:57:11.359Z,99.90
2022-09-22T08:59:46.999Z,99.90
2022-09-22T09:02:34.841Z,1.00
2022-09-22T09:05:45.988Z,99.90
2022-09-22T09:08:39.245Z,1.00
2022-09-22T09:11:10.140Z,1.00
2022-09-22T09:13:51.001Z,1.00
2022-09-22T09:16:32.968Z,99.90
2022-09-22T09:19:11.496Z,1.00
2022-09-22T09:21:43.557Z,1.00
2022-09-22T09:27:13.370Z,1.00
2022-09-22T09:29:47.044Z,99.90
2022-09-22T09:32:26.183Z,50.00
2022-09-22T09:34:56.033Z,14.90
2022-09-22T09:37:24.761Z,1.00
2022-09-22T09:39:53.146Z,1.00
2022-09-22T09:42:25.044Z,99.90
2022-09-22T09:44:54.435Z,99.90
2022-09-22T09:47:36.522Z,99.90
2022-09-22T09:50:06.798Z,99.90
2022-09-22T09:52:37.084Z,99.90
2022-09-22T09:55:19.201Z,99.90
2022-09-22T09:58:03.256Z,99.90
2022-09-22T10:00:33.582Z,99.90
2022-09-22T10:03:14.689Z,99.90
2022-09-22T10:05:44.422Z,99.90
2022-09-22T10:08:17.383Z,99.90
2022-09-22T10:10:48.905Z,99.90
2022-09-22T10:13:24.362Z,99.90
2022-09-22T10:16:06.969Z,99.90
2022-09-22T10:18:40.206Z,99.90
2022-09-22T10:21:16.620Z,99.90
2022-09-22T10:23:46.559Z,99.90
2022-09-22T10:26:17.669Z,46.40
2022-09-22T10:28:50.788Z,59.60
2022-09-22T10:31:24.386Z,11.80
2022-09-22T10:33:57.448Z,4.30
2022-09-22T10:36:27.614Z,93.50
2022-09-22T10:38:59.656Z,99.90
2022-09-22T10:41:37.045Z,99.90
2022-09-22T10:44:37.500Z,99.90
2022-09-22T10:47:13.889Z,99.90
2022-09-22T10:49:57.909Z,99.90
2022-09-22T10:52:34.582Z,99.90
2022-09-22T10:55:16.181Z,99.90
2022-09-22T10:58:08.825Z,99.90
2022-09-22T11:00:39.210Z,99.90
2022-09-22T11:03:45.385Z,99.90
2022-09-22T11:06:46.259Z,99.90
2022-09-22T11:09:42.728Z,99.90
2022-09-22T11:12:22.231Z,99.90
2022-09-22T11:15:14.330Z,99.90
2022-09-22T11:18:01.896Z,92.80
2022-09-22T11:20:36.872Z,99.90
2022-09-22T11:23:30.866Z,48.80
2022-09-22T11:26:18.766Z,21.60
2022-09-22T11:29:00.168Z,21.00
2022-09-22T11:31:42.360Z,1.00
2022-09-22T11:34:39.491Z,1.00
2022-09-22T11:37:27.794Z,1.00
2022-09-22T11:40:17.764Z,1.00
2022-09-22T11:43:03.784Z,1.00
2022-09-22T11:45:48.330Z,1.00
2022-09-22T11:48:28.941Z,1.00
2022-09-22T11:51:10.583Z,1.00
2022-09-22T11:53:58.310Z,1.00
2022-09-22T11:56:38.595Z,1.00
2022-09-22T11:59:26.943Z,1.00
2022-09-22T12:01:58.286Z,1.00
2022-09-22T12:04:35.172Z,1.00
2022-09-22T12:07:07.662Z,1.00
2022-09-22T12:09:38.697Z,1.00
2022-09-22T12:12:09.981Z,1.00
2022-09-22T12:14:41.207Z,1.00
2022-09-22T12:17:13.697Z,1.00
2022-09-22T12:19:54.003Z,99.90
2022-09-22T12:22:28.555Z,99.90
2022-09-22T12:24:56.414Z,99.90
2022-09-22T12:27:28.846Z,99.90
2022-09-22T12:30:01.225Z,99.90
2022-09-22T12:32:35.904Z,99.90
2022-09-22T12:35:07.761Z,99.90
2022-09-22T12:37:39.289Z,99.90
2022-09-22T12:40:25.437Z,99.90
2022-09-22T12:42:54.911Z,99.90
2022-09-22T12:45:32.900Z,99.90
2022-09-22T12:48:05.787Z,99.90
2022-09-22T12:50:39.861Z,99.90
2022-09-22T12:53:13.066Z,99.90
2022-09-22T12:55:40.997Z,99.90
2022-09-22T12:58:40.886Z,99.90
2022-09-22T13:01:33.760Z,99.90
2022-09-22T13:04:17.526Z,99.90
2022-09-22T13:07:00.660Z,99.90
2022-09-22T13:09:31.372Z,99.90
2022-09-22T13:12:25.329Z,99.90
2022-09-22T13:15:18.954Z,99.90
2022-09-22T13:17:50.054Z,99.90
2022-09-22T13:20:21.678Z,99.90
2022-09-22T13:22:51.938Z,99.90
2022-09-22T13:25:25.301Z,99.90
2022-09-22T13:28:13.064Z,99.90
2022-09-22T13:30:42.693Z,99.90
2022-09-22T13:33:23.013Z,99.90
2022-09-22T13:35:57.070Z,99.90
2022-09-22T13:38:25.094Z,99.90
2022-09-22T13:40:53.467Z,99.90
2022-09-22T13:43:39.832Z,99.90
2022-09-22T13:46:17.261Z,99.90
2022-09-22T13:48:46.716Z,99.90
2022-09-22T13:51:16.914Z,99.90
2022-09-22T13:53:50.094Z,99.90
2022-09-22T13:56:21.923Z,99.90
2022-09-22T13:58:51.517Z,99.90
2022-09-22T14:01:21.298Z,99.90
2022-09-22T14:03:51.778Z,99.90
2022-09-22T14:06:22.000Z,1.00
2022-09-22T14:08:51.806Z,99.90
2022-09-22T14:11:22.037Z,99.90
2022-09-22T14:14:00.991Z,99.90
2022-09-22T14:16:34.160Z,99.90
2022-09-22T14:19:06.900Z,99.90
2022-09-22T14:21:43.859Z,99.90
2022-09-22T14:24:15.140Z,99.90
2022-09-22T14:26:47.812Z,99.90
2022-09-22T14:29:19.650Z,1.00
2022-09-22T14:31:52.047Z,1.00
2022-09-22T14:34:26.475Z,1.00
2022-09-22T14:36:56.228Z,1.00
2022-09-22T14:39:31.859Z,99.90
2022-09-22T14:42:09.173Z,99.90
2022-09-22T14:44:43.419Z,99.90
2022-09-22T14:47:24.025Z,99.90
2022-09-22T14:50:08.674Z,99.90
2022-09-22T14:52:40.217Z,99.90
2022-09-22T14:55:15.683Z,99.90
2022-09-22T14:57:46.751Z,99.90
2022-09-22T15:00:34.725Z,99.90
2022-09-22T15:03:06.180Z,99.90
2022-09-22T15:05:36.074Z,99.90
2022-09-22T15:08:03.818Z,99.90
2022-09-22T15:10:36.956Z,99.90
2022-09-22T15:13:19.922Z,99.90
2022-09-22T15:15:49.604Z,99.90
2022-09-22T15:18:19.231Z,99.90
2022-09-22T15:20:51.602Z,99.90
2022-09-22T15:23:22.921Z,99.90
2022-09-22T15:25:52.091Z,99.90
2022-09-22T15:28:24.698Z,99.90
2022-09-22T15:30:55.074Z,99.90
2022-09-22T15:33:23.313Z,99.90
2022-09-22T15:35:56.292Z,99.90
2022-09-22T15:38:26.758Z,99.90
2022-09-22T15:40:55.259Z,99.90
2022-09-22T15:43:24.601Z,99.90
2022-09-22T15:45:56.726Z,99.90
2022-09-22T15:48:30.882Z,99.90
2022-09-22T15:51:04.683Z,99.90
2022-09-22T15:53:35.599Z,99.90
2022-09-22T15:56:06.328Z,99.90
2022-09-22T15:58:37.032Z,99.90
2022-09-22T16:01:05.596Z,99.90
2022-09-22T16:03:38.966Z,99.90
2022-09-22T16:06:14.099Z,99.90
2022-09-22T16:08:44.538Z,99.90
2022-09-22T16:11:16.285Z,99.90
2022-09-22T16:13:44.564Z,99.90
2022-09-22T16:16:14.737Z,99.90
2022-09-22T16:18:43.903Z,99.90
2022-09-22T16:21:21.542Z,99.90
2022-09-22T16:23:49.895Z,99.90
2022-09-22T16:26:17.793Z,99.90
2022-09-22T16:28:45.702Z,99.90
2022-09-22T16:31:15.657Z,99.90
2022-09-22T16:33:43.880Z,99.90
2022-09-22T16:36:12.170Z,99.90
2022-09-22T16:38:41.713Z,99.90
2022-09-22T16:41:19.950Z,99.90
2022-09-22T16:43:48.599Z,99.90
2022-09-22T16:46:29.887Z,99.90
2022-09-22T16:49:00.288Z,99.90
2022-09-22T16:51:29.090Z,99.90
2022-09-22T16:53:58.658Z,99.90
2022-09-22T16:56:28.327Z,99.90
2022-09-22T16:58:57.264Z,99.90
2022-09-22T17:01:25.999Z,1.00
2022-09-22T17:03:54.101Z,1.00
2022-09-22T17:06:25.263Z,1.00
2022-09-22T17:08:53.889Z,1.00
2022-09-22T17:11:29.390Z,1.00
2022-09-22T17:14:01.354Z,1.00
2022-09-22T17:16:31.100Z,1.00
2022-09-22T17:19:02.977Z,1.00
2022-09-22T17:21:34.520Z,1.00
2022-09-22T17:24:03.728Z,1.00
2022-09-22T17:26:35.206Z,30.30
2022-09-22T17:29:03.352Z,99.90
2022-09-22T17:31:32.376Z,99.90
2022-09-22T17:34:00.380Z,99.90
2022-09-22T17:36:29.721Z,99.90
2022-09-22T17:38:59.203Z,99.90
2022-09-22T17:41:29.573Z,99.90
2022-09-22T17:44:01.135Z,99.90
2022-09-22T17:46:31.136Z,99.90
2022-09-22T17:49:16.413Z,99.90
2022-09-22T17:52:03.500Z,99.90
2022-09-22T17:54:50.197Z,99.90
2022-09-22T17:57:19.663Z,99.90
2022-09-22T17:59:49.420Z,99.90
2022-09-22T18:02:20.213Z,99.90
2022-09-22T18:04:49.307Z,99.90
2022-09-22T18:07:21.225Z,99.90
2022-09-22T18:09:50.700Z,99.90
2022-09-22T18:12:21.399Z,99.90
2022-09-22T18:14:52.324Z,99.90
2022-09-22T18:17:24.581Z,1.00
2022-09-22T18:19:55.039Z,32.00
2022-09-22T18:22:26.310Z,99.90
2022-09-22T18:24:56.221Z,99.90
2022-09-22T18:27:26.936Z,1.00
2022-09-22T18:29:59.472Z,99.90
2022-09-22T18:32:28.077Z,99.90
2022-09-22T18:34:56.352Z,99.90
2022-09-22T18:37:26.240Z,99.90
2022-09-22T18:39:54.214Z,99.90
2022-09-22T18:42:24.100Z,99.90
2022-09-22T18:44:52.412Z,99.90
2022-09-22T18:47:23.931Z,99.90
2022-09-22T18:49:52.360Z,99.90
2022-09-22T18:52:23.796Z,43.20
2022-09-22T18:54:54.336Z,99.90
2022-09-22T18:57:24.568Z,99.90
2022-09-22T18:59:53.898Z,1.00
2022-09-22T19:02:23.484Z,1.00
2022-09-22T19:04:52.193Z,54.00
2022-09-22T19:07:43.526Z,99.90
2022-09-22T19:10:13.997Z,99.90
2022-09-22T19:12:42.492Z,99.90
2022-09-22T19:15:15.439Z,99.90
2022-09-22T19:17:46.850Z,99.90
2022-09-22T19:20:18.105Z,1.00
2022-09-22T19:22:46.777Z,1.00
2022-09-22T19:25:16.014Z,1.00
2022-09-22T19:27:44.163Z,99.90
2022-09-22T19:30:15.054Z,1.00
2022-09-22T19:32:45.984Z,99.90
2022-09-22T19:35:16.524Z,1.00
2022-09-22T19:37:45.940Z,99.90
2022-09-22T19:40:18.674Z,99.90
2022-09-22T19:42:47.258Z,1.00
2022-09-22T19:45:15.507Z,99.90
2022-09-22T19:47:44.750Z,1.00
2022-09-22T19:50:13.028Z,99.90
2022-09-22T19:52:41.698Z,1.00
2022-09-22T19:55:11.486Z,99.90
2022-09-22T19:57:42.069Z,1.00
2022-09-22T20:00:13.622Z,99.90
2022-09-22T20:02:42.246Z,99.90
2022-09-22T20:05:20.573Z,55.30
2022-09-22T20:07:48.516Z,66.10
2022-09-22T20:10:17.388Z,58.00
2022-09-22T20:12:47.612Z,13.50
2022-09-22T20:15:15.933Z,1.00
2022-09-22T20:17:46.033Z,15.60
2022-09-22T20:20:17.099Z,22.00
2022-09-22T20:22:46.589Z,75.00
2022-09-22T20:25:23.159Z,82.20
2022-09-22T20:27:53.621Z,99.90
2022-09-22T20:30:21.851Z,99.90
2022-09-22T20:32:50.387Z,99.90
2022-09-22T20:35:21.807Z,99.90
2022-09-22T20:37:51.454Z,99.90
2022-09-22T20:40:23.146Z,99.90
2022-09-22T20:42:54.128Z,99.90
2022-09-22T20:45:24.773Z,99.90
2022-09-22T20:47:53.197Z,99.90
2022-09-22T20:50:22.691Z,99.90
2022-09-22T20:52:50.928Z,99.90
2022-09-22T20:55:37.780Z,1.00
2022-09-22T21:02:18.009Z,1.00
2022-09-22T21:04:46.078Z,1.00
2022-09-22T21:07:15.512Z,1.00
2022-09-22T21:10:00.989Z,1.00
2022-09-22T21:12:31.453Z,1.00
2022-09-22T21:15:02.608Z,1.00
2022-09-22T21:17:31.151Z,1.00
2022-09-22T21:19:59.282Z,1.00
2022-09-22T21:22:28.977Z,1.00
2022-09-22T21:24:57.137Z,1.00
2022-09-22T21:27:25.639Z,1.00
2022-09-22T21:29:54.099Z,1.00
2022-09-22T21:32:22.413Z,1.00
2022-09-22T21:34:50.503Z,1.00
2022-09-22T21:37:19.033Z,1.00
2022-09-22T21:39:48.476Z,1.00
2022-09-22T21:46:05.070Z,1.00
2022-09-22T21:48:37.010Z,1.00
2022-09-22T21:51:07.901Z,1.00
2022-09-22T21:53:37.161Z,8.00
2022-09-22T21:56:07.881Z,25.20
2022-09-22T21:58:38.561Z,31.80
2022-09-22T22:01:07.590Z,29.00
2022-09-22T22:03:36.788Z,31.70
2022-09-22T22:06:12.131Z,36.30
2022-09-22T22:08:42.466Z,49.20
2022-09-22T22:11:13.291Z,67.00
2022-09-22T22:13:42.427Z,81.20
2022-09-22T22:16:13.571Z,91.00
2022-09-22T22:18:42.618Z,90.20
2022-09-22T22:21:12.772Z,94.60
2022-09-22T22:23:42.463Z,99.90
2022-09-22T22:26:13.936Z,99.90
2022-09-22T22:28:42.900Z,99.90
2022-09-22T22:31:12.788Z,99.90
2022-09-22T22:33:41.940Z,99.90
2022-09-22T22:36:12.235Z,99.90
2022-09-22T22:38:41.314Z,99.90
2022-09-22T22:41:12.475Z,99.90
2022-09-22T22:43:41.397Z,99.90
2022-09-22T22:46:11.204Z,99.90
2022-09-22T22:48:39.163Z,99.90
2022-09-22T22:51:12.368Z,99.90
2022-09-22T22:53:40.316Z,99.90
2022-09-22T22:56:11.366Z,99.90
2022-09-22T22:58:40.923Z,99.90
2022-09-22T23:01:10.867Z,99.90
2022-09-22T23:03:41.166Z,99.90
2022-09-22T23:06:10.363Z,99.90
2022-09-22T23:08:38.861Z,99.90
2022-09-22T23:11:11.620Z,99.90
2022-09-22T23:13:45.746Z,99.90
2022-09-22T23:16:17.069Z,99.90
2022-09-22T23:18:48.025Z,99.90
2022-09-22T23:21:18.050Z,99.90
2022-09-22T23:23:46.416Z,99.90
2022-09-22T23:26:15.434Z,99.90
2022-09-22T23:28:44.885Z,99.90
2022-09-22T23:31:14.679Z,99.90
2022-09-22T23:33:44.402Z,99.90
2022-09-22T23:36:14.618Z,99.90
2022-09-22T23:38:42.548Z,99.90
2022-09-22T23:41:11.095Z,99.90
2022-09-22T23:43:39.677Z,99.90
2022-09-22T23:46:09.039Z,99.90
2022-09-22T23:48:37.100Z,99.90
2022-09-22T23:51:05.393Z,99.90
2022-09-22T23:53:35.021Z,99.90
2022-09-22T23:56:03.631Z,99.90
2022-09-22T23:58:32.517Z,99.90
